Time;durP1;ratioP1;P1;durP2;ratioP2;P2;SDS_P1;SDS_P2;PMS_P1;PMS_P2;Temp;Humidity;BMP_temperature;BMP_pressure;BME280_temperature;BME280_humidity;BME280_pressure;Samples;Min_cycle;Max_cycle;Signal;HPM_P1;HPM_P2
2024/02/22 00:01:51;;;;;;;8.85;8.07;;;10.40;99.90;;;;;;5089878;28;20025;-84
2024/02/22 00:04:16;;;;;;;10.95;10.10;;;10.30;99.90;;;;;;5092498;28;20036;-84
2024/02/22 00:06:42;;;;;;;11.00;10.15;;;10.30;99.90;;;;;;5087273;28;20027;-84
2024/02/22 00:09:08;;;;;;;11.55;10.40;;;10.30;99.90;;;;;;5101273;28;20070;-84
2024/02/22 00:11:33;;;;;;;11.32;10.43;;;10.30;99.90;;;;;;5086881;28;20136;-84
2024/02/22 00:13:59;;;;;;;10.60;9.65;;;10.30;99.90;;;;;;5099464;28;20086;-83
2024/02/22 00:16:24;;;;;;;9.50;8.70;;;10.30;99.90;;;;;;5095374;28;20111;-83
2024/02/22 00:18:50;;;;;;;10.60;9.70;;;10.30;99.90;;;;;;5083212;28;20021;-83
2024/02/22 00:21:17;;;;;;;9.52;8.73;;;10.40;99.90;;;;;;5080252;28;20032;-83
2024/02/22 00:23:42;;;;;;;9.40;8.63;;;10.30;99.90;;;;;;5107050;28;20471;-83
2024/02/22 00:26:08;;;;;;;9.93;9.13;;;10.30;99.90;;;;;;5077076;28;20021;-83
2024/02/22 00:28:33;;;;;;;9.13;8.43;;;10.40;99.90;;;;;;5078065;28;20036;-82
2024/02/22 00:30:59;;;;;;;9.18;8.48;;;10.40;99.90;;;;;;5072573;28;20460;-83
2024/02/22 00:33:24;;;;;;;9.13;8.45;;;10.40;99.90;;;;;;5080040;28;20036;-83
2024/02/22 00:35:50;;;;;;;9.90;9.00;;;10.40;99.90;;;;;;5074177;28;20437;-83
2024/02/22 00:38:15;;;;;;;8.98;8.10;;;10.40;99.90;;;;;;5089292;28;20435;-83
2024/02/22 00:40:41;;;;;;;9.50;8.80;;;10.40;99.90;;;;;;5084463;28;20044;-83
2024/02/22 00:43:06;;;;;;;9.48;8.77;;;10.40;99.90;;;;;;5096080;28;20376;-83
2024/02/22 00:45:34;;;;;;;8.77;8.07;;;10.40;99.90;;;;;;5089844;28;20028;-83
2024/02/22 00:48:00;;;;;;;8.85;8.20;;;10.40;99.90;;;;;;5094651;28;20055;-84
2024/02/22 00:50:26;;;;;;;10.52;9.63;;;10.40;99.90;;;;;;5086912;28;20054;-84
2024/02/22 00:52:52;;;;;;;9.75;8.95;;;10.40;99.90;;;;;;5096177;28;20024;-84
2024/02/22 00:55:18;;;;;;;11.38;10.27;;;10.40;99.90;;;;;;5095214;28;20119;-84
2024/02/22 00:57:44;;;;;;;11.57;10.43;;;10.40;99.90;;;;;;5082251;28;20123;-84
2024/02/22 01:00:11;;;;;;;12.88;11.45;;;10.50;99.90;;;;;;5093551;28;20083;-83
2024/02/22 01:02:38;;;;;;;12.80;11.38;;;10.50;99.90;;;;;;5090230;28;20039;-84
2024/02/22 01:05:04;;;;;;;17.20;12.45;;;10.50;99.90;;;;;;5098322;28;20429;-84
2024/02/22 01:07:31;;;;;;;13.77;12.40;;;10.50;99.90;;;;;;5098172;28;20421;-82
2024/02/22 01:09:57;;;;;;;20.00;13.63;;;10.50;99.90;;;;;;5094680;28;20019;-84
2024/02/22 01:12:23;;;;;;;25.80;15.35;;;10.50;99.90;;;;;;5101679;28;20384;-85
2024/02/22 01:14:48;;;;;;;27.38;15.90;;;10.60;99.90;;;;;;5074573;28;20055;-83
2024/02/22 01:17:14;;;;;;;30.58;17.42;;;10.50;99.90;;;;;;5083808;28;20030;-83
2024/02/22 01:19:39;;;;;;;35.83;16.55;;;10.50;99.90;;;;;;5084442;28;20452;-83
2024/02/22 01:22:05;;;;;;;38.13;16.50;;;10.60;99.90;;;;;;5077845;28;20070;-83
2024/02/22 01:24:31;;;;;;;33.13;15.95;;;10.60;99.90;;;;;;5094365;28;20035;-82
2024/02/22 01:26:57;;;;;;;43.72;16.25;;;10.50;99.90;;;;;;5088792;28;20036;-82
2024/02/22 01:29:22;;;;;;;40.58;15.30;;;10.60;99.90;;;;;;5089497;28;20031;-83
2024/02/22 01:31:48;;;;;;;40.60;16.40;;;10.60;99.90;;;;;;5087381;28;20039;-83
2024/02/22 01:34:13;;;;;;;48.95;14.73;;;10.60;99.90;;;;;;5086266;28;20391;-83
2024/02/22 01:36:39;;;;;;;53.88;13.60;;;10.60;99.90;;;;;;5083710;28;20028;-82
2024/02/22 01:39:06;;;;;;;45.10;13.05;;;10.60;99.90;;;;;;5099175;28;20038;-81
2024/02/22 01:41:32;;;;;;;51.90;12.80;;;10.60;99.90;;;;;;5076780;28;20058;-82
2024/02/22 01:43:57;;;;;;;38.72;10.85;;;10.60;99.90;;;;;;5078953;28;20620;-83
2024/02/22 01:46:23;;;;;;;48.92;11.52;;;10.60;99.90;;;;;;5087404;28;20039;-83
2024/02/22 01:48:49;;;;;;;44.22;11.77;;;11.10;99.90;;;;;;5085209;28;20256;-83
2024/02/22 01:51:16;;;;;;;46.42;13.45;;;10.60;99.90;;;;;;5077245;28;20028;-83
2024/02/22 01:53:42;;;;;;;53.65;13.15;;;10.60;99.90;;;;;;5090312;28;20032;-83
2024/02/22 01:56:09;;;;;;;57.10;11.90;;;10.60;99.90;;;;;;5083801;28;20499;-83
2024/02/22 01:58:36;;;;;;;56.03;11.50;;;10.60;99.90;;;;;;5089426;28;20035;-82
2024/02/22 02:01:03;;;;;;;42.33;11.85;;;10.60;99.90;;;;;;5084956;28;20438;-82
2024/02/22 02:03:30;;;;;;;52.33;12.32;;;10.60;99.90;;;;;;5091413;28;20024;-83
2024/02/22 02:05:56;;;;;;;51.88;12.35;;;10.50;99.90;;;;;;5078538;28;20067;-84
2024/02/22 02:08:22;;;;;;;50.70;12.18;;;10.50;99.90;;;;;;5079857;28;20343;-83
2024/02/22 02:10:47;;;;;;;52.13;12.70;;;10.50;99.90;;;;;;5089879;28;20068;-82
2024/02/22 02:13:13;;;;;;;54.17;12.45;;;10.50;99.90;;;;;;5081202;28;20581;-83
2024/02/22 02:15:39;;;;;;;43.78;9.77;;;10.50;99.90;;;;;;5076490;28;20431;-84
2024/02/22 02:18:05;;;;;;;53.78;11.30;;;10.50;99.90;;;;;;5072321;28;20091;-83
2024/02/22 02:20:44;;;;;;;72.03;10.32;;;10.50;99.90;;;;;;5078833;28;20356;-83
2024/02/22 02:23:25;;;;;;;56.08;10.50;;;10.50;99.90;;;;;;5084963;28;20028;-83
2024/02/22 02:25:51;;;;;;;54.42;11.88;;;10.50;99.90;;;;;;5085889;28;20047;-83
2024/02/22 02:28:17;;;;;;;51.80;10.60;;;10.50;99.90;;;;;;5069424;28;20025;-84
2024/02/22 02:30:42;;;;;;;53.13;10.75;;;10.50;99.90;;;;;;5079121;28;20056;-84
2024/02/22 02:33:08;;;;;;;40.25;10.85;;;10.50;99.90;;;;;;5088057;28;20062;-83
2024/02/22 02:35:37;;;;;;;56.20;11.52;;;10.60;99.90;;;;;;5072816;28;20040;-83
2024/02/22 02:38:07;;;;;;;60.58;11.30;;;10.60;99.90;;;;;;5075149;28;20032;-82
2024/02/22 02:40:33;;;;;;;52.08;11.40;;;10.50;99.90;;;;;;5099851;28;20051;-83
2024/02/22 02:42:58;;;;;;;55.63;11.65;;;10.50;99.90;;;;;;5082211;28;20029;-83
2024/02/22 02:45:24;;;;;;;71.30;13.50;;;10.50;99.90;;;;;;5072587;28;20120;-83
2024/02/22 02:47:49;;;;;;;56.05;15.52;;;10.50;99.90;;;;;;5071343;28;20032;-83
2024/02/22 02:50:15;;;;;;;67.70;15.40;;;10.60;99.90;;;;;;5069940;28;20024;-83
2024/02/22 02:52:40;;;;;;;52.60;14.55;;;10.80;99.90;;;;;;5071913;28;20024;-83
2024/02/22 02:55:07;;;;;;;41.28;13.52;;;10.60;99.90;;;;;;5076883;28;20032;-83
2024/02/22 02:57:32;;;;;;;60.72;13.60;;;10.60;99.90;;;;;;5075133;28;20032;-83
2024/02/22 02:59:58;;;;;;;64.78;14.13;;;10.50;99.90;;;;;;5090053;28;20027;-83
2024/02/22 03:02:23;;;;;;;57.47;12.10;;;10.60;99.90;;;;;;5106821;28;20024;-83
2024/02/22 03:04:49;;;;;;;57.83;11.02;;;10.50;99.90;;;;;;5090039;28;20044;-82
2024/02/22 03:07:15;;;;;;;53.13;11.95;;;10.60;99.90;;;;;;5085314;28;20085;-83
2024/02/22 03:09:40;;;;;;;42.03;9.55;;;10.50;99.90;;;;;;5091136;28;20033;-81
2024/02/22 03:12:06;;;;;;;37.72;9.05;;;10.60;99.90;;;;;;5095443;28;20039;-83
2024/02/22 03:14:33;;;;;;;56.47;9.13;;;10.60;99.90;;;;;;5091425;28;20538;-83
2024/02/22 03:16:59;;;;;;;51.33;9.65;;;10.60;99.90;;;;;;5095303;28;20027;-82
2024/02/22 03:19:24;;;;;;;56.35;11.25;;;10.60;99.90;;;;;;5088264;28;20032;-83
2024/02/22 03:21:51;;;;;;;53.08;9.85;;;10.60;99.90;;;;;;5080547;28;20032;-83
2024/02/22 03:24:17;;;;;;;54.72;8.43;;;10.60;99.90;;;;;;5076605;28;20079;-83
2024/02/22 03:26:46;;;;;;;46.92;8.77;;;10.60;99.90;;;;;;5094458;28;20056;-84
2024/02/22 03:29:12;;;;;;;47.50;9.50;;;10.60;99.90;;;;;;5088308;28;20032;-84
2024/02/22 03:31:40;;;;;;;53.30;10.95;;;10.60;99.90;;;;;;5089875;28;20024;-84
2024/02/22 03:34:05;;;;;;;56.67;8.60;;;10.50;99.90;;;;;;5088264;28;20056;-84
2024/02/22 03:36:31;;;;;;;45.55;10.18;;;10.50;99.90;;;;;;5073573;28;20052;-84
2024/02/22 03:38:56;;;;;;;55.95;9.98;;;10.50;99.90;;;;;;5074472;28;20021;-84
2024/02/22 03:41:26;;;;;;;54.55;8.52;;;10.50;99.90;;;;;;5082455;28;20058;-84
2024/02/22 03:43:52;;;;;;;48.38;9.35;;;10.50;99.90;;;;;;5097292;28;20088;-83
2024/02/22 03:46:18;;;;;;;44.63;9.07;;;10.50;99.90;;;;;;5090324;28;20078;-84
2024/02/22 03:48:43;;;;;;;46.58;7.38;;;10.50;99.90;;;;;;5091614;28;20047;-83
2024/02/22 03:51:09;;;;;;;44.45;7.85;;;10.50;99.90;;;;;;5087185;28;20119;-84
2024/02/22 03:53:34;;;;;;;47.25;7.53;;;10.50;99.90;;;;;;5092476;28;20031;-83
2024/02/22 03:56:00;;;;;;;42.78;7.72;;;10.50;99.90;;;;;;5096401;28;20399;-83
2024/02/22 03:58:25;;;;;;;38.85;7.60;;;10.50;99.90;;;;;;5092376;28;20450;-83
2024/02/22 04:00:51;;;;;;;38.35;7.05;;;10.50;99.90;;;;;;5093671;28;20464;-84
2024/02/22 04:03:18;;;;;;;41.75;7.32;;;10.40;99.90;;;;;;5084359;28;20035;-83
2024/02/22 04:05:44;;;;;;;39.65;8.52;;;10.50;99.90;;;;;;5094897;28;20028;-85
2024/02/22 04:08:09;;;;;;;32.53;6.40;;;10.50;99.90;;;;;;5078770;28;20032;-85
2024/02/22 04:10:35;;;;;;;45.58;7.82;;;10.40;99.90;;;;;;5100455;28;20036;-85
2024/02/22 04:13:01;;;;;;;40.80;6.60;;;10.50;99.90;;;;;;5087471;28;20031;-85
2024/02/22 04:15:26;;;;;;;46.40;7.47;;;10.50;99.90;;;;;;5083323;28;20032;-86
2024/02/22 04:17:52;;;;;;;44.58;8.35;;;10.50;99.90;;;;;;5080779;28;20411;-86
2024/02/22 04:20:17;;;;;;;32.90;5.50;;;10.50;99.90;;;;;;5089074;28;20396;-84
2024/02/22 04:22:48;;;;;;;39.55;6.70;;;10.50;99.90;;;;;;5091417;28;20386;-83
2024/02/22 04:25:14;;;;;;;33.70;6.47;;;10.50;99.90;;;;;;5073785;28;20483;-84
2024/02/22 04:27:40;;;;;;;43.28;6.75;;;10.50;99.90;;;;;;5089678;28;20430;-82
2024/02/22 04:30:06;;;;;;;34.22;5.38;;;10.50;99.90;;;;;;5076686;28;20037;-83
2024/02/22 04:32:31;;;;;;;40.50;6.35;;;10.50;99.90;;;;;;5080699;28;20023;-84
2024/02/22 04:34:57;;;;;;;30.52;5.95;;;10.60;99.90;;;;;;5091492;28;20386;-83
2024/02/22 04:37:22;;;;;;;35.28;5.40;;;10.50;99.90;;;;;;5103420;28;20025;-84
2024/02/22 04:39:48;;;;;;;30.90;6.38;;;10.60;99.90;;;;;;5094713;28;20110;-83
2024/02/22 04:42:15;;;;;;;27.33;6.75;;;10.60;99.90;;;;;;5085284;28;20457;-84
2024/02/22 04:44:41;;;;;;;33.40;5.95;;;10.60;99.90;;;;;;5101883;28;20035;-84
2024/02/22 04:47:06;;;;;;;34.08;6.43;;;10.50;99.90;;;;;;5082653;28;20032;-84
2024/02/22 04:49:32;;;;;;;23.60;5.07;;;10.50;99.90;;;;;;5082970;28;20024;-84
2024/02/22 04:51:57;;;;;;;31.08;5.80;;;10.60;99.90;;;;;;5075680;28;20028;-83
2024/02/22 04:54:24;;;;;;;35.05;6.22;;;10.60;99.90;;;;;;5086801;28;20059;-84
2024/02/22 04:56:49;;;;;;;36.35;5.88;;;10.50;99.90;;;;;;5097686;28;20110;-82
2024/02/22 04:59:15;;;;;;;28.95;5.72;;;10.60;99.90;;;;;;5088455;28;20119;-83
2024/02/22 05:01:40;;;;;;;33.35;5.50;;;10.50;99.90;;;;;;5088838;28;20024;-82
2024/02/22 05:04:06;;;;;;;32.47;5.90;;;10.50;99.90;;;;;;5095790;28;20036;-83
2024/02/22 05:06:31;;;;;;;36.17;5.20;;;10.50;99.90;;;;;;5098897;28;20472;-82
2024/02/22 05:08:57;;;;;;;36.22;6.40;;;10.50;99.90;;;;;;5080267;28;20071;-82
2024/02/22 05:11:22;;;;;;;28.33;5.15;;;10.40;99.90;;;;;;5086286;28;20039;-82
2024/02/22 05:13:50;;;;;;;36.95;6.63;;;10.40;99.90;;;;;;5089842;28;20039;-83
2024/02/22 05:16:15;;;;;;;31.38;5.50;;;10.40;99.90;;;;;;5098075;28;20038;-82
2024/02/22 05:18:41;;;;;;;29.83;5.57;;;10.40;99.90;;;;;;5096371;28;20116;-83
2024/02/22 05:21:07;;;;;;;29.30;4.93;;;10.30;99.90;;;;;;5074115;28;20515;-82
2024/02/22 05:23:33;;;;;;;31.33;4.72;;;10.30;99.90;;;;;;5096751;28;20032;-83
2024/02/22 05:25:59;;;;;;;39.00;7.28;;;10.30;99.90;;;;;;5090352;28;20039;-83
2024/02/22 05:28:24;;;;;;;39.90;5.60;;;10.30;99.90;;;;;;5091842;28;20169;-82
2024/02/22 05:30:51;;;;;;;32.45;5.88;;;10.20;99.90;;;;;;5088453;28;20028;-83
2024/02/22 05:33:16;;;;;;;31.90;6.10;;;10.20;99.90;;;;;;5092271;28;20032;-82
2024/02/22 05:35:42;;;;;;;23.83;4.90;;;10.20;99.90;;;;;;5098014;28;20028;-83
2024/02/22 05:38:07;;;;;;;21.33;4.00;;;10.10;99.90;;;;;;5089822;28;20032;-82
2024/02/22 05:40:33;;;;;;;25.77;5.28;;;10.10;99.90;;;;;;5085270;28;20046;-82
2024/02/22 05:42:58;;;;;;;40.28;6.43;;;10.10;99.90;;;;;;5085402;28;20259;-82
2024/02/22 05:45:43;;;;;;;28.42;4.97;;;10.10;99.90;;;;;;5092655;28;20036;-83
2024/02/22 05:48:09;;;;;;;28.10;4.68;;;10.00;99.90;;;;;;5080332;28;20044;-82
2024/02/22 05:50:35;;;;;;;30.50;5.25;;;10.00;99.90;;;;;;5095516;28;20032;-84
2024/02/22 05:53:01;;;;;;;27.80;4.38;;;10.00;99.90;;;;;;5094406;28;20024;-83
2024/02/22 05:55:26;;;;;;;33.55;5.78;;;10.00;99.90;;;;;;5081204;28;20047;-84
2024/02/22 05:57:52;;;;;;;41.38;5.88;;;10.00;99.90;;;;;;5095618;28;20036;-84
2024/02/22 06:00:18;;;;;;;31.52;5.05;;;10.00;99.90;;;;;;5085533;28;20487;-85
2024/02/22 06:02:44;;;;;;;34.22;6.07;;;10.00;99.90;;;;;;5087560;28;20039;-84
2024/02/22 06:05:10;;;;;;;30.60;5.63;;;10.00;99.90;;;;;;5076681;28;20403;-85
2024/02/22 06:07:36;;;;;;;35.35;4.68;;;10.00;99.90;;;;;;5081344;28;20016;-85
2024/02/22 06:10:02;;;;;;;21.63;5.22;;;10.00;99.90;;;;;;5081252;28;20150;-85
2024/02/22 06:12:29;;;;;;;28.33;5.22;;;10.00;99.90;;;;;;5085332;28;20024;-85
2024/02/22 06:14:55;;;;;;;34.25;6.30;;;10.00;99.90;;;;;;5071299;28;20517;-85
2024/02/22 06:17:20;;;;;;;21.80;5.03;;;10.00;99.90;;;;;;5075171;28;20033;-85
2024/02/22 06:19:46;;;;;;;29.17;6.13;;;9.90;99.90;;;;;;5081294;28;20131;-85
2024/02/22 06:22:12;;;;;;;32.85;5.60;;;9.90;99.90;;;;;;5071936;28;20025;-85
2024/02/22 06:24:38;;;;;;;34.58;5.57;;;10.00;99.90;;;;;;5083930;28;20044;-84
2024/02/22 06:27:04;;;;;;;26.08;5.80;;;10.00;99.90;;;;;;5076574;28;20112;-84
2024/02/22 06:29:30;;;;;;;34.53;6.55;;;9.90;99.90;;;;;;5073796;28;20138;-83
2024/02/22 06:31:56;;;;;;;31.48;6.70;;;10.00;99.90;;;;;;5075619;28;20028;-85
2024/02/22 06:34:21;;;;;;;23.92;5.00;;;9.90;99.90;;;;;;5072150;28;20020;-83
2024/02/22 06:36:47;;;;;;;44.97;6.13;;;9.90;99.90;;;;;;5087815;28;20027;-83
2024/02/22 06:39:12;;;;;;;36.17;5.43;;;10.00;99.90;;;;;;5077553;28;20021;-86
2024/02/22 06:41:38;;;;;;;35.15;5.68;;;10.00;99.90;;;;;;5077970;28;20050;-83
2024/02/22 06:44:03;;;;;;;29.30;4.97;;;10.00;99.90;;;;;;5089277;28;20503;-83
2024/02/22 06:46:29;;;;;;;34.08;4.80;;;10.00;99.90;;;;;;5092158;28;20051;-82
2024/02/22 06:48:55;;;;;;;21.52;5.22;;;10.00;99.90;;;;;;5097717;28;20085;-84
2024/02/22 06:51:23;;;;;;;25.48;5.53;;;10.00;99.90;;;;;;5104350;28;20034;-83
2024/02/22 06:53:49;;;;;;;34.17;7.53;;;10.00;99.90;;;;;;5073242;28;20090;-83
2024/02/22 06:56:15;;;;;;;24.35;6.53;;;10.00;99.90;;;;;;5075770;28;20032;-85
2024/02/22 06:58:40;;;;;;;24.70;6.55;;;10.00;99.90;;;;;;5072033;28;20082;-85
2024/02/22 07:01:06;;;;;;;21.98;5.45;;;10.10;99.90;;;;;;5071973;28;20415;-83
2024/02/22 07:03:32;;;;;;;24.02;5.75;;;10.10;99.90;;;;;;5071842;28;20422;-82
2024/02/22 07:05:57;;;;;;;26.10;6.55;;;10.10;99.90;;;;;;5072672;28;20020;-85
2024/02/22 07:08:23;;;;;;;27.48;6.95;;;10.10;99.90;;;;;;5071649;28;20495;-83
2024/02/22 07:10:49;;;;;;;28.55;6.05;;;10.10;99.90;;;;;;5090906;28;20030;-82
2024/02/22 07:13:14;;;;;;;27.00;6.93;;;10.00;99.90;;;;;;5091860;28;20032;-82
2024/02/22 07:15:40;;;;;;;21.92;6.10;;;10.00;99.90;;;;;;5092156;28;20032;-83
2024/02/22 07:18:06;;;;;;;26.98;6.57;;;10.00;99.90;;;;;;5092729;28;20020;-83
2024/02/22 07:20:31;;;;;;;24.45;6.63;;;10.00;99.90;;;;;;5092299;28;20048;-83
2024/02/22 07:22:57;;;;;;;29.02;5.90;;;10.10;99.90;;;;;;5093024;28;20384;-83
2024/02/22 07:25:23;;;;;;;28.40;6.28;;;10.10;99.90;;;;;;5092848;28;20047;-86
2024/02/22 07:27:50;;;;;;;17.95;5.55;;;10.00;99.90;;;;;;5093372;28;20052;-84
2024/02/22 07:30:16;;;;;;;20.50;5.95;;;10.00;99.90;;;;;;5091605;28;20027;-85
2024/02/22 07:32:42;;;;;;;26.05;6.13;;;10.00;99.90;;;;;;5084912;28;20028;-86
2024/02/22 07:35:08;;;;;;;20.80;6.25;;;10.00;99.90;;;;;;5083235;28;20032;-85
2024/02/22 07:37:34;;;;;;;22.98;7.40;;;10.00;99.90;;;;;;5083369;28;20085;-85
2024/02/22 07:39:59;;;;;;;22.60;8.18;;;10.10;99.90;;;;;;5087362;28;20024;-83
2024/02/22 07:42:25;;;;;;;20.10;6.80;;;10.10;99.90;;;;;;5085297;28;20035;-84
2024/02/22 07:44:51;;;;;;;23.38;7.20;;;10.00;99.90;;;;;;5077406;28;20048;-85
2024/02/22 07:47:16;;;;;;;24.55;7.65;;;10.00;99.90;;;;;;5075242;28;20032;-85
2024/02/22 07:49:42;;;;;;;24.25;8.57;;;10.10;99.90;;;;;;5078358;28;20411;-85
2024/02/22 07:52:08;;;;;;;20.55;8.13;;;10.00;99.90;;;;;;5084998;28;20021;-83
2024/02/22 07:54:33;;;;;;;21.08;8.35;;;10.10;99.90;;;;;;5083775;28;20028;-83
2024/02/22 07:56:59;;;;;;;31.95;9.73;;;10.10;99.90;;;;;;5082898;28;20039;-85
2024/02/22 07:59:24;;;;;;;21.52;8.43;;;10.10;99.90;;;;;;5091354;28;20475;-85
2024/02/22 08:01:50;;;;;;;25.23;9.13;;;10.10;99.90;;;;;;5084434;28;20029;-84
2024/02/22 08:04:16;;;;;;;21.25;8.50;;;10.10;99.90;;;;;;5086114;28;20036;-85
2024/02/22 08:06:41;;;;;;;24.67;8.85;;;10.10;99.90;;;;;;5092140;28;20035;-85
2024/02/22 08:09:07;;;;;;;23.48;9.13;;;10.10;99.90;;;;;;5088374;28;20028;-85
2024/02/22 08:11:32;;;;;;;15.73;7.93;;;10.10;99.90;;;;;;5076270;28;20008;-83
2024/02/22 08:13:59;;;;;;;27.70;8.02;;;10.20;99.90;;;;;;5092871;28;20089;-84
2024/02/22 08:16:24;;;;;;;18.10;7.45;;;10.20;99.90;;;;;;5093352;28;20033;-84
2024/02/22 08:18:50;;;;;;;16.25;7.40;;;10.20;99.90;;;;;;5088566;28;20028;-84
2024/02/22 08:21:19;;;;;;;19.30;7.57;;;10.20;99.90;;;;;;5089601;28;20353;-83
2024/02/22 08:23:45;;;;;;;18.27;7.05;;;10.20;99.90;;;;;;5071191;28;20035;-87
2024/02/22 08:26:10;;;;;;;15.40;6.53;;;10.20;99.90;;;;;;5087435;28;20040;-86
2024/02/22 08:28:36;;;;;;;10.25;6.85;;;10.20;99.90;;;;;;5093080;28;20023;-87
2024/02/22 08:31:02;;;;;;;9.32;6.10;;;10.30;99.90;;;;;;5093744;28;20498;-87
2024/02/22 08:33:29;;;;;;;20.83;6.55;;;10.20;99.90;;;;;;5093889;28;20047;-87
2024/02/22 08:35:56;;;;;;;10.07;5.35;;;10.20;99.90;;;;;;5093704;28;20032;-87
2024/02/22 08:38:23;;;;;;;14.68;6.70;;;10.20;99.90;;;;;;5084420;28;20077;-88
2024/02/22 08:40:51;;;;;;;14.90;6.50;;;10.20;99.90;;;;;;5082148;28;20055;-86
2024/02/22 08:43:17;;;;;;;11.55;5.85;;;10.30;99.90;;;;;;5074551;28;20027;-87
2024/02/22 08:45:42;;;;;;;12.68;6.82;;;10.30;99.90;;;;;;5073517;28;20032;-84
2024/02/22 08:48:08;;;;;;;11.80;5.70;;;10.30;99.90;;;;;;5092644;28;20069;-87
2024/02/22 08:50:34;;;;;;;9.98;5.93;;;10.30;99.90;;;;;;5084654;28;20039;-85
2024/02/22 08:53:00;;;;;;;9.93;6.20;;;10.20;99.90;;;;;;5091404;28;20383;-87
2024/02/22 08:55:25;;;;;;;9.52;5.57;;;10.30;99.90;;;;;;5092637;28;20080;-81
2024/02/22 08:57:51;;;;;;;9.43;5.68;;;10.30;99.90;;;;;;5090930;28;20031;-80
2024/02/22 09:00:19;;;;;;;12.35;5.43;;;10.30;99.90;;;;;;5092052;28;20032;-85
2024/02/22 09:02:48;;;;;;;6.03;4.95;;;10.40;99.90;;;;;;5076092;28;20086;-84
2024/02/22 09:05:14;;;;;;;12.95;6.32;;;10.40;99.90;;;;;;5071274;28;20039;-85
2024/02/22 09:07:39;;;;;;;10.77;5.40;;;10.50;99.90;;;;;;5075138;28;20032;-84
2024/02/22 09:10:08;;;;;;;9.85;5.13;;;10.40;99.90;;;;;;5081875;28;20031;-86
2024/02/22 09:12:35;;;;;;;6.60;5.10;;;10.40;99.90;;;;;;5090412;28;20032;-85
2024/02/22 09:15:02;;;;;;;5.93;4.32;;;10.50;99.90;;;;;;5091555;28;20056;-83
2024/02/22 09:17:27;;;;;;;9.43;5.05;;;10.50;99.90;;;;;;5094721;28;20020;-82
2024/02/22 09:19:53;;;;;;;6.40;4.70;;;10.50;99.90;;;;;;5091040;28;20024;-82
2024/02/22 09:22:20;;;;;;;6.32;4.80;;;10.60;99.90;;;;;;5091941;28;20510;-83
2024/02/22 09:24:46;;;;;;;6.35;5.13;;;10.60;99.90;;;;;;5082408;28;20106;-84
2024/02/22 09:27:13;;;;;;;5.63;4.55;;;11.20;99.90;;;;;;5075442;28;20028;-85
2024/02/22 09:29:39;;;;;;;9.00;5.07;;;10.60;99.90;;;;;;5082541;28;20028;-85
2024/02/22 09:32:06;;;;;;;6.50;5.45;;;10.60;99.90;;;;;;5089530;28;20020;-86
2024/02/22 09:34:36;;;;;;;6.45;5.43;;;10.60;99.90;;;;;;5087589;28;20479;-87
2024/02/22 09:37:03;;;;;;;5.60;5.10;;;10.60;99.90;;;;;;5092357;28;20023;-86
2024/02/22 09:39:29;;;;;;;6.07;5.32;;;10.60;99.90;;;;;;5088234;28;20047;-86
2024/02/22 09:41:55;;;;;;;6.55;5.43;;;10.70;99.90;;;;;;5091549;28;20040;-85
2024/02/22 09:44:21;;;;;;;9.25;5.38;;;10.70;99.90;;;;;;5089201;28;20135;-85
2024/02/22 09:46:49;;;;;;;6.20;5.70;;;10.70;99.90;;;;;;5074144;28;20106;-85
2024/02/22 09:49:15;;;;;;;6.97;6.28;;;10.80;99.90;;;;;;5080493;28;20514;-87
2024/02/22 09:51:41;;;;;;;5.63;5.05;;;10.80;99.90;;;;;;5088554;28;20017;-85
2024/02/22 09:54:08;;;;;;;6.38;5.38;;;11.00;99.90;;;;;;5091995;28;20498;-85
2024/02/22 09:56:34;;;;;;;5.65;4.57;;;10.90;99.90;;;;;;5088901;28;20030;-86
2024/02/22 09:59:00;;;;;;;5.65;5.15;;;10.90;99.90;;;;;;5090377;28;20024;-84
2024/02/22 10:01:25;;;;;;;6.50;5.07;;;10.90;99.90;;;;;;5087816;28;20020;-84
2024/02/22 10:03:51;;;;;;;6.95;5.25;;;10.90;99.90;;;;;;5089833;28;20028;-85
2024/02/22 10:06:22;;;;;;;5.82;5.25;;;11.00;99.90;;;;;;5090619;28;20067;-84
2024/02/22 10:08:48;;;;;;;6.57;5.03;;;11.00;99.90;;;;;;5095292;28;20028;-83
2024/02/22 10:11:17;;;;;;;5.63;4.75;;;11.00;99.90;;;;;;5081732;28;20120;-83
2024/02/22 10:13:43;;;;;;;5.40;4.75;;;11.10;99.90;;;;;;5093851;28;20069;-88
2024/02/22 10:16:14;;;;;;;6.43;4.15;;;11.10;99.90;;;;;;5093675;28;20031;-86
2024/02/22 10:18:40;;;;;;;4.65;4.22;;;11.10;99.90;;;;;;5095468;28;20067;-85
2024/02/22 10:21:17;;;;;;;5.22;3.50;;;11.20;99.90;;;;;;5095914;28;20044;-85
2024/02/22 10:23:52;;;;;;;3.88;3.58;;;11.20;99.90;;;;;;5088826;28;20044;-85
2024/02/22 10:26:18;;;;;;;3.95;3.55;;;11.20;99.90;;;;;;5094859;28;20368;-85
2024/02/22 10:29:07;;;;;;;3.58;3.28;;;11.20;99.90;;;;;;5086274;28;20028;-84
2024/02/22 10:31:43;;;;;;;3.80;3.35;;;11.20;99.90;;;;;;5074668;28;20379;-83
2024/02/22 10:34:09;;;;;;;3.50;3.20;;;11.30;99.90;;;;;;5075120;28;20104;-82
2024/02/22 10:36:36;;;;;;;6.55;3.80;;;11.40;99.90;;;;;;5075350;28;20024;-85
2024/02/22 10:39:02;;;;;;;3.25;2.95;;;11.30;99.90;;;;;;5094924;28;20085;-86
2024/02/22 10:41:29;;;;;;;4.30;3.83;;;11.30;99.90;;;;;;5094863;28;20044;-83
2024/02/22 10:43:57;;;;;;;3.28;2.97;;;11.30;99.90;;;;;;5094512;28;20028;-84
2024/02/22 10:46:27;;;;;;;5.07;3.78;;;11.30;99.90;;;;;;5093796;28;20028;-85
2024/02/22 10:48:53;;;;;;;4.13;3.25;;;11.30;99.90;;;;;;5084164;28;20036;-84
2024/02/22 10:51:23;;;;;;;3.20;3.00;;;11.30;99.90;;;;;;5088165;28;20065;-85
2024/02/22 10:53:55;;;;;;;4.88;3.15;;;11.30;99.90;;;;;;5073352;28;20017;-82
2024/02/22 10:56:23;;;;;;;3.88;3.58;;;11.30;99.90;;;;;;5081554;28;20097;-84
2024/02/22 10:58:55;;;;;;;3.22;3.03;;;11.40;99.90;;;;;;5093700;28;20065;-82
2024/02/22 11:01:21;;;;;;;4.65;3.38;;;11.40;99.90;;;;;;5092841;28;20032;-81
2024/02/22 11:03:47;;;;;;;3.47;3.25;;;11.40;99.90;;;;;;5094314;28;20020;-82
2024/02/22 11:06:14;;;;;;;5.43;4.10;;;11.30;99.90;;;;;;5093466;28;20142;-83
2024/02/22 11:08:49;;;;;;;3.80;3.50;;;11.40;99.90;;;;;;5093947;28;20668;-82
2024/02/22 11:11:27;;;;;;;6.50;3.92;;;11.40;99.90;;;;;;5088940;28;20105;-83
2024/02/22 11:14:02;;;;;;;3.95;3.65;;;11.40;99.90;;;;;;5075135;28;20023;-83
2024/02/22 11:16:40;;;;;;;3.70;3.40;;;11.40;99.90;;;;;;5075071;28;20044;-82
2024/02/22 11:19:08;;;;;;;3.95;3.65;;;11.40;99.90;;;;;;5080280;28;20372;-82
2024/02/22 11:21:35;;;;;;;4.70;4.10;;;11.40;99.90;;;;;;5089823;28;20392;-83
2024/02/22 11:24:11;;;;;;;5.13;4.78;;;11.40;99.90;;;;;;5079597;28;20433;-83
2024/02/22 11:26:38;;;;;;;4.68;4.30;;;11.40;99.90;;;;;;5086069;28;20379;-83
2024/02/22 11:29:04;;;;;;;4.45;4.15;;;11.50;99.90;;;;;;5088226;28;20036;-83
2024/02/22 11:31:30;;;;;;;5.30;4.90;;;11.50;99.90;;;;;;5088606;28;20077;-84
2024/02/22 11:33:57;;;;;;;5.60;4.68;;;11.50;99.90;;;;;;5088124;28;20024;-83
2024/02/22 11:36:24;;;;;;;4.43;4.05;;;11.50;99.90;;;;;;5080306;28;20029;-82
2024/02/22 11:39:06;;;;;;;4.72;4.32;;;11.50;99.90;;;;;;5072926;28;20059;-83
2024/02/22 11:41:32;;;;;;;5.47;4.68;;;11.50;99.90;;;;;;5070835;28;20048;-83
2024/02/22 11:44:06;;;;;;;5.00;4.60;;;11.40;99.90;;;;;;5073126;28;20035;-83
2024/02/22 11:46:40;;;;;;;5.30;4.00;;;11.50;99.90;;;;;;5071895;28;20446;-83
2024/02/22 11:49:06;;;;;;;5.13;4.00;;;11.60;99.90;;;;;;5072689;28;20109;-82
2024/02/22 11:51:34;;;;;;;4.00;3.72;;;11.60;99.90;;;;;;5072191;28;20029;-83
2024/02/22 11:54:00;;;;;;;4.03;3.83;;;11.60;99.90;;;;;;5081878;28;20118;-84
2024/02/22 11:56:26;;;;;;;3.33;3.13;;;11.70;99.90;;;;;;5074377;28;20183;-83
2024/02/22 11:58:55;;;;;;;4.03;3.83;;;11.70;99.90;;;;;;5072844;28;20107;-84
2024/02/22 12:01:21;;;;;;;3.45;3.20;;;11.70;99.90;;;;;;5072834;28;20028;-83
2024/02/22 12:03:48;;;;;;;3.45;3.25;;;11.70;99.90;;;;;;5071634;28;20041;-83
2024/02/22 12:06:14;;;;;;;3.20;3.00;;;11.70;99.90;;;;;;5072933;28;20471;-84
2024/02/22 12:08:43;;;;;;;2.90;2.70;;;11.80;99.90;;;;;;5072373;28;20029;-87
2024/02/22 12:11:09;;;;;;;3.10;2.92;;;11.80;99.90;;;;;;5082742;28;20467;-83
2024/02/22 12:13:35;;;;;;;3.10;2.90;;;11.80;99.90;;;;;;5088073;28;20069;-84
2024/02/22 12:16:10;;;;;;;2.65;2.45;;;11.70;99.90;;;;;;5092052;28;20039;-83
2024/02/22 12:18:38;;;;;;;2.95;2.75;;;11.80;99.90;;;;;;5092289;28;20484;-84
2024/02/22 12:21:09;;;;;;;3.13;2.92;;;11.70;99.90;;;;;;5092307;28;20158;-82
2024/02/22 12:23:35;;;;;;;2.72;2.42;;;11.70;99.90;;;;;;5086620;28;20081;-82
2024/02/22 12:26:06;;;;;;;2.70;2.50;;;11.80;99.90;;;;;;5091952;28;20031;-82
2024/02/22 12:28:33;;;;;;;2.85;2.50;;;11.80;99.90;;;;;;5082532;28;20097;-82
2024/02/22 12:30:59;;;;;;;5.78;2.65;;;11.80;99.90;;;;;;5082741;28;20111;-82
2024/02/22 12:33:25;;;;;;;2.33;2.20;;;11.80;99.90;;;;;;5091902;28;20539;-82
2024/02/22 12:35:51;;;;;;;2.60;2.42;;;11.80;99.90;;;;;;5086160;28;20024;-82